createdAt,value
2017-11-13T00:01:01.904Z,3.60
2017-11-13T00:03:29.515Z,3.66
2017-11-13T00:05:57.227Z,3.63
2017-11-13T00:08:24.818Z,3.60
2017-11-13T00:10:52.581Z,3.64
2017-11-13T00:13:20.179Z,3.65
2017-11-13T00:15:48.066Z,3.62
2017-11-13T00:18:15.952Z,3.62
2017-11-13T00:20:43.816Z,3.62
2017-11-13T00:23:11.504Z,3.62
2017-11-13T00:25:39.141Z,3.61
2017-11-13T00:28:06.844Z,3.62
2017-11-13T00:30:34.503Z,3.61
2017-11-13T00:33:02.172Z,3.62
2017-11-13T00:35:29.825Z,3.61
2017-11-13T00:37:57.486Z,3.63
2017-11-13T00:40:25.191Z,3.66
2017-11-13T00:42:52.776Z,3.64
2017-11-13T00:45:20.797Z,3.66
2017-11-13T00:47:48.451Z,3.66
2017-11-13T00:50:16.097Z,3.67
2017-11-13T00:52:43.696Z,3.65
2017-11-13T00:55:11.288Z,3.63
2017-11-13T00:57:39.069Z,3.62
2017-11-13T01:00:06.726Z,3.62
2017-11-13T01:02:34.595Z,3.64
2017-11-13T01:05:02.177Z,3.66
2017-11-13T01:07:29.777Z,3.69
2017-11-13T01:09:57.624Z,3.71
2017-11-13T01:12:25.201Z,3.75
2017-11-13T01:14:52.952Z,3.76
2017-11-13T01:17:20.546Z,3.77
2017-11-13T01:19:48.539Z,3.78
2017-11-13T01:22:16.121Z,3.76
2017-11-13T01:24:43.868Z,3.76
2017-11-13T01:27:11.576Z,3.73
2017-11-13T01:29:39.158Z,3.65
2017-11-13T01:32:07.036Z,3.68
2017-11-13T01:34:34.646Z,3.66
2017-11-13T01:37:02.326Z,3.63
2017-11-13T01:39:29.910Z,3.64
2017-11-13T01:41:57.533Z,3.66
2017-11-13T01:44:25.600Z,3.67
2017-11-13T01:46:53.529Z,3.64
2017-11-13T01:49:24.771Z,3.61
2017-11-13T01:51:52.431Z,3.56
2017-11-13T01:54:20.250Z,3.55
2017-11-13T01:56:47.862Z,3.58
2017-11-13T01:59:16.246Z,3.61
2017-11-13T02:01:44.149Z,3.61
2017-11-13T02:04:11.804Z,3.63
2017-11-13T02:06:39.395Z,3.62
2017-11-13T02:09:07.024Z,3.59
2017-11-13T02:11:34.758Z,3.61
2017-11-13T02:14:02.394Z,3.63
2017-11-13T02:16:30.689Z,3.64
2017-11-13T02:18:59.708Z,3.62
2017-11-13T02:21:27.314Z,3.60
2017-11-13T02:23:54.924Z,3.58
2017-11-13T02:26:22.549Z,3.55
2017-11-13T02:28:50.132Z,3.55
2017-11-13T02:31:17.815Z,3.59
2017-11-13T02:33:45.594Z,3.57
2017-11-13T02:36:13.517Z,3.55
2017-11-13T02:38:41.148Z,3.56
2017-11-13T02:41:08.813Z,3.55
2017-11-13T02:43:36.441Z,3.57
2017-11-13T02:46:04.028Z,3.60
2017-11-13T02:48:31.715Z,3.56
2017-11-13T02:50:59.448Z,3.51
2017-11-13T02:53:28.126Z,3.53
2017-11-13T02:55:55.724Z,3.57
2017-11-13T02:58:23.389Z,3.60
2017-11-13T03:00:51.054Z,3.61
2017-11-13T03:03:18.633Z,3.59
2017-11-13T03:05:46.432Z,3.59
2017-11-13T03:08:14.044Z,3.54
2017-11-13T03:10:42.046Z,3.53
2017-11-13T03:13:09.704Z,3.53
2017-11-13T03:15:37.354Z,3.54
2017-11-13T03:18:04.967Z,3.55
2017-11-13T03:20:32.582Z,3.58
2017-11-13T03:23:00.321Z,3.57
2017-11-13T03:25:28.146Z,3.55
2017-11-13T03:27:57.329Z,3.55
2017-11-13T03:30:26.618Z,3.59
2017-11-13T03:33:00.512Z,3.60
2017-11-13T03:35:28.106Z,3.63
2017-11-13T03:37:55.919Z,3.63
2017-11-13T03:40:23.582Z,3.65
2017-11-13T03:42:51.800Z,3.62
2017-11-13T03:45:19.791Z,3.63
2017-11-13T03:47:48.087Z,3.58
2017-11-13T03:50:15.711Z,3.58
2017-11-13T03:52:43.357Z,3.58
2017-11-13T03:55:10.983Z,3.60
2017-11-13T03:57:38.912Z,3.65
2017-11-13T04:00:06.556Z,3.67
2017-11-13T04:02:34.227Z,3.64
2017-11-13T04:05:01.894Z,3.62
2017-11-13T04:07:29.572Z,3.63
2017-11-13T04:09:57.246Z,3.65
2017-11-13T04:12:24.794Z,3.67
2017-11-13T04:14:52.696Z,3.62
2017-11-13T04:17:20.252Z,3.60
2017-11-13T04:19:47.798Z,3.62
2017-11-13T04:22:15.369Z,3.65
2017-11-13T04:24:43.115Z,3.64
2017-11-13T04:27:11.307Z,3.63
2017-11-13T04:29:38.913Z,3.64
2017-11-13T04:32:06.452Z,3.63
2017-11-13T04:34:34.059Z,3.64
2017-11-13T04:37:01.594Z,3.63
2017-11-13T04:39:29.535Z,3.65
2017-11-13T04:41:57.759Z,3.65
2017-11-13T04:44:26.276Z,3.65
2017-11-13T04:46:53.868Z,3.68
2017-11-13T04:49:21.425Z,3.68
2017-11-13T04:51:49.012Z,3.67
2017-11-13T04:54:16.609Z,3.68
2017-11-13T04:56:44.533Z,3.67
2017-11-13T04:59:12.175Z,3.67
2017-11-13T05:01:39.725Z,3.65
2017-11-13T05:04:07.317Z,3.66
2017-11-13T05:06:35.021Z,3.66
2017-11-13T05:09:02.640Z,3.68
2017-11-13T05:11:30.205Z,3.69
2017-11-13T05:13:57.788Z,3.67
2017-11-13T05:16:25.415Z,3.67
2017-11-13T05:18:52.973Z,3.66
2017-11-13T05:21:20.621Z,3.68
2017-11-13T05:23:48.216Z,3.70
2017-11-13T05:26:15.998Z,3.69
2017-11-13T05:28:43.561Z,3.68
2017-11-13T05:31:11.137Z,3.70
2017-11-13T05:33:39.609Z,3.67
2017-11-13T05:36:15.312Z,3.68
2017-11-13T05:38:43.576Z,3.71
2017-11-13T05:41:11.227Z,3.73
2017-11-13T05:43:38.810Z,3.68
2017-11-13T05:46:06.342Z,3.67
2017-11-13T05:48:33.921Z,3.72
2017-11-13T05:51:01.478Z,3.74
2017-11-13T05:53:29.156Z,3.77
2017-11-13T05:55:56.801Z,3.76
2017-11-13T05:58:24.333Z,3.78
2017-11-13T06:00:52.554Z,3.78
2017-11-13T06:03:20.223Z,3.79
2017-11-13T06:05:47.831Z,3.80
2017-11-13T06:08:15.421Z,3.83
2017-11-13T06:10:43.009Z,3.81
2017-11-13T06:13:10.621Z,3.81
2017-11-13T06:15:38.206Z,3.82
2017-11-13T06:18:06.101Z,3.79
2017-11-13T06:20:33.706Z,3.76
2017-11-13T06:23:01.569Z,3.74
2017-11-13T06:25:29.176Z,3.64
2017-11-13T06:27:56.750Z,3.61
2017-11-13T06:30:24.417Z,3.59
2017-11-13T06:32:51.951Z,3.61
2017-11-13T06:35:19.521Z,3.65
2017-11-13T06:37:47.257Z,3.69
2017-11-13T06:40:14.872Z,3.70
2017-11-13T06:42:42.421Z,3.70
2017-11-13T06:45:09.976Z,3.71
2017-11-13T06:47:37.555Z,3.71
2017-11-13T06:50:05.110Z,3.69
2017-11-13T06:52:32.699Z,3.68
2017-11-13T06:55:00.289Z,3.73
2017-11-13T06:57:27.842Z,3.69
2017-11-13T06:59:56.271Z,3.67
2017-11-13T07:02:23.885Z,3.69
2017-11-13T07:04:51.476Z,3.71
2017-11-13T07:07:19.208Z,3.72
2017-11-13T07:09:46.765Z,3.70
2017-11-13T07:12:14.453Z,3.74
2017-11-13T07:14:42.148Z,3.75
2017-11-13T07:17:09.799Z,3.76
2017-11-13T07:19:37.416Z,3.79
2017-11-13T07:22:05.153Z,3.81
2017-11-13T07:24:32.725Z,3.82
2017-11-13T07:27:00.439Z,3.84
2017-11-13T07:29:28.026Z,3.80
2017-11-13T07:31:55.909Z,3.79
2017-11-13T07:34:24.284Z,3.78
2017-11-13T07:36:55.187Z,3.70
2017-11-13T07:39:23.004Z,3.61
2017-11-13T07:41:50.644Z,3.59
2017-11-13T07:44:18.445Z,3.56
2017-11-13T07:46:46.027Z,3.61
2017-11-13T07:49:13.723Z,3.63
2017-11-13T07:51:41.272Z,3.72
2017-11-13T07:54:08.880Z,3.75
2017-11-13T07:56:36.546Z,3.74
2017-11-13T07:59:04.141Z,3.84
2017-11-13T08:01:32.127Z,3.84
2017-11-13T08:03:59.751Z,3.88
2017-11-13T08:06:27.468Z,3.94
2017-11-13T08:08:58.564Z,3.93
2017-11-13T08:11:26.354Z,3.96
2017-11-13T08:13:54.299Z,4.03
2017-11-13T08:16:22.015Z,4.01
2017-11-13T08:18:49.614Z,4.04
2017-11-13T08:21:17.227Z,4.03
2017-11-13T08:23:44.782Z,4.04
2017-11-13T08:26:12.352Z,4.09
2017-11-13T08:28:39.985Z,4.15
2017-11-13T08:31:07.649Z,4.15
2017-11-13T08:33:35.630Z,4.08
2017-11-13T08:36:03.241Z,4.15
2017-11-13T08:38:30.886Z,4.17
2017-11-13T08:40:58.519Z,4.15
2017-11-13T08:43:26.292Z,4.18
2017-11-13T08:45:53.905Z,4.21
2017-11-13T08:48:21.497Z,4.29
2017-11-13T08:50:49.129Z,4.40
2017-11-13T08:53:16.713Z,4.43
2017-11-13T08:55:44.573Z,4.44
2017-11-13T08:58:12.145Z,4.46
2017-11-13T09:00:39.695Z,4.42
2017-11-13T09:03:07.285Z,4.44
2017-11-13T09:05:34.869Z,4.46
2017-11-13T09:08:02.452Z,4.42
2017-11-13T09:10:30.032Z,4.44
2017-11-13T09:12:57.603Z,4.50
2017-11-13T09:15:25.150Z,4.55
2017-11-13T09:17:52.726Z,4.55
2017-11-13T09:20:23.727Z,4.56
2017-11-13T09:22:51.817Z,4.54
2017-11-13T09:25:19.525Z,4.50
2017-11-13T09:27:47.090Z,4.50
2017-11-13T09:30:14.664Z,4.56
2017-11-13T09:32:42.237Z,4.55
2017-11-13T09:35:09.809Z,4.57
2017-11-13T09:37:37.452Z,4.62
2017-11-13T09:40:05.147Z,4.67
2017-11-13T09:42:32.717Z,4.61
2017-11-13T09:45:00.286Z,4.61
2017-11-13T09:47:27.834Z,4.58
2017-11-13T09:49:56.674Z,4.65
2017-11-13T09:52:24.291Z,4.72
2017-11-13T09:54:51.931Z,4.76
2017-11-13T09:57:19.491Z,4.70
2017-11-13T09:59:47.050Z,4.59
2017-11-13T10:02:14.624Z,4.67
2017-11-13T10:04:42.176Z,4.69
2017-11-13T10:07:09.808Z,4.69
2017-11-13T10:09:37.351Z,4.79
2017-11-13T10:12:04.928Z,4.80
2017-11-13T10:14:32.531Z,4.75
2017-11-13T10:17:00.111Z,4.82
2017-11-13T10:19:27.693Z,4.91
2017-11-13T10:21:55.264Z,4.99
2017-11-13T10:24:23.555Z,4.93
2017-11-13T10:26:51.182Z,5.00
2017-11-13T10:29:18.742Z,5.03
2017-11-13T10:31:46.307Z,5.02
2017-11-13T10:34:13.959Z,5.09
2017-11-13T10:36:41.544Z,5.06
2017-11-13T10:39:09.097Z,5.13
2017-11-13T10:41:36.716Z,5.20
2017-11-13T10:44:04.369Z,5.09
2017-11-13T10:46:31.941Z,5.11
2017-11-13T10:48:59.683Z,5.16
2017-11-13T10:51:27.268Z,5.10
2017-11-13T10:53:54.895Z,5.11
2017-11-13T10:56:22.551Z,5.11
2017-11-13T10:58:51.920Z,5.01
2017-11-13T11:01:19.965Z,4.83
2017-11-13T11:03:47.708Z,4.95
2017-11-13T11:06:15.270Z,5.00
2017-11-13T11:08:42.854Z,5.02
2017-11-13T11:11:10.455Z,5.05
2017-11-13T11:13:43.629Z,5.01
2017-11-13T11:16:15.743Z,5.01
2017-11-13T11:21:43.325Z,4.85
2017-11-13T11:24:10.996Z,4.86
2017-11-13T11:26:41.590Z,4.91
2017-11-13T11:32:20.376Z,5.03
2017-11-13T11:34:54.909Z,5.07
2017-11-13T11:37:24.971Z,5.14
2017-11-13T11:39:52.976Z,5.13
2017-11-13T11:42:20.685Z,5.28
2017-11-13T11:44:50.227Z,5.41
2017-11-13T11:47:17.922Z,5.51
2017-11-13T11:49:48.969Z,5.64
2017-11-13T11:52:16.563Z,5.74
2017-11-13T11:54:44.894Z,5.67
2017-11-13T11:57:15.092Z,5.66
2017-11-13T11:59:42.714Z,5.52
2017-11-13T12:02:10.287Z,5.47
2017-11-13T12:04:39.193Z,5.40
2017-11-13T12:07:06.793Z,5.35
2017-11-13T12:09:34.753Z,5.27
2017-11-13T12:12:02.349Z,5.25
2017-11-13T12:14:29.919Z,5.40
2017-11-13T12:16:57.509Z,5.47
2017-11-13T12:19:25.085Z,5.70
2017-11-13T12:21:52.641Z,5.81
2017-11-13T12:24:26.581Z,5.81
2017-11-13T12:26:54.641Z,5.73
2017-11-13T12:29:23.090Z,5.49
2017-11-13T12:31:50.738Z,5.47
2017-11-13T12:34:18.350Z,5.43
2017-11-13T12:36:45.917Z,5.47
2017-11-13T12:39:14.644Z,5.46
2017-11-13T12:41:42.312Z,5.39
2017-11-13T12:44:09.953Z,5.32
2017-11-13T12:46:37.552Z,5.34
2017-11-13T12:49:05.141Z,5.44
2017-11-13T12:51:32.729Z,5.63
2017-11-13T12:54:00.764Z,5.86
2017-11-13T12:56:28.371Z,5.99
2017-11-13T12:58:55.992Z,6.13
2017-11-13T13:01:23.670Z,6.18
2017-11-13T13:03:51.266Z,6.17
2017-11-13T13:06:19.050Z,6.13
2017-11-13T13:08:47.346Z,6.06
2017-11-13T13:11:16.162Z,5.95
2017-11-13T13:13:43.787Z,5.86
2017-11-13T13:16:11.358Z,5.75
2017-11-13T13:18:38.990Z,5.66
2017-11-13T13:21:06.530Z,5.67
2017-11-13T13:23:34.100Z,5.69
2017-11-13T13:26:01.885Z,5.66
2017-11-13T13:28:29.498Z,5.64
2017-11-13T13:30:57.097Z,5.59
2017-11-13T13:33:24.684Z,5.60
2017-11-13T13:35:52.256Z,5.58
2017-11-13T13:38:19.866Z,5.57
2017-11-13T13:40:47.574Z,5.54
2017-11-13T13:43:15.172Z,5.53
2017-11-13T13:45:42.856Z,5.51
2017-11-13T13:48:10.470Z,5.41
2017-11-13T13:50:39.084Z,5.42
2017-11-13T13:53:06.902Z,5.39
2017-11-13T13:55:34.667Z,5.38
2017-11-13T13:58:02.271Z,5.34
2017-11-13T14:00:29.954Z,5.31
2017-11-13T14:02:57.534Z,5.34
2017-11-13T14:05:25.315Z,5.37
2017-11-13T14:07:52.937Z,5.36
2017-11-13T14:10:20.675Z,5.43
2017-11-13T14:12:48.278Z,5.48
2017-11-13T14:15:15.977Z,5.51
2017-11-13T14:17:43.601Z,5.51
2017-11-13T14:20:11.396Z,5.48
2017-11-13T14:22:39.122Z,5.48
2017-11-13T14:25:06.724Z,5.41
2017-11-13T14:27:34.500Z,5.46
2017-11-13T14:30:02.091Z,5.47
2017-11-13T14:32:29.703Z,5.46
2017-11-13T14:34:57.327Z,5.46
2017-11-13T14:37:24.950Z,5.44
2017-11-13T14:39:52.541Z,5.44
2017-11-13T14:42:20.170Z,5.42
2017-11-13T14:44:47.813Z,5.43
2017-11-13T14:47:15.809Z,5.43
2017-11-13T14:49:43.384Z,5.43
2017-11-13T14:52:10.945Z,5.43
2017-11-13T14:54:38.511Z,5.43
2017-11-13T14:57:06.089Z,5.41
2017-11-13T14:59:33.734Z,5.38
2017-11-13T15:02:01.335Z,5.36
2017-11-13T15:04:28.899Z,5.33
2017-11-13T15:06:56.646Z,5.29
2017-11-13T15:09:24.220Z,5.26
2017-11-13T15:11:51.833Z,5.24
2017-11-13T15:14:19.430Z,5.25
2017-11-13T15:16:47.065Z,5.23
2017-11-13T15:19:15.281Z,5.19
2017-11-13T15:21:43.101Z,5.19
2017-11-13T15:24:10.695Z,5.17
2017-11-13T15:26:38.418Z,5.16
2017-11-13T15:29:06.041Z,5.16
2017-11-13T15:31:33.632Z,5.11
2017-11-13T15:34:01.182Z,5.13
2017-11-13T15:36:28.768Z,5.11
2017-11-13T15:38:56.378Z,5.07
2017-11-13T15:41:24.008Z,5.06
2017-11-13T15:43:52.037Z,5.01
2017-11-13T15:46:25.485Z,5.02
2017-11-13T15:48:53.481Z,5.00
2017-11-13T15:51:22.157Z,4.98
2017-11-13T15:53:50.876Z,4.96
2017-11-13T15:56:19.442Z,4.95
2017-11-13T15:58:47.119Z,4.93
2017-11-13T16:01:14.811Z,4.91
2017-11-13T16:03:42.386Z,4.92
2017-11-13T16:06:09.941Z,4.90
2017-11-13T16:08:37.525Z,4.87
2017-11-13T16:11:05.093Z,4.89
2017-11-13T16:13:32.733Z,4.87
2017-11-13T16:16:00.703Z,4.87
2017-11-13T16:18:28.389Z,4.84
2017-11-13T16:20:56.035Z,4.82
2017-11-13T16:23:23.571Z,4.82
2017-11-13T16:25:51.797Z,4.83
2017-11-13T16:28:19.383Z,4.85
2017-11-13T16:30:46.959Z,4.86
2017-11-13T16:33:14.590Z,4.86
2017-11-13T16:35:42.268Z,4.87
2017-11-13T16:38:09.980Z,4.87
2017-11-13T16:40:37.881Z,4.85
2017-11-13T16:43:11.785Z,4.84
2017-11-13T16:45:39.970Z,4.85
2017-11-13T16:48:07.769Z,4.85
2017-11-13T16:50:35.438Z,4.81
2017-11-13T16:53:03.007Z,4.76
2017-11-13T16:55:30.632Z,4.74
2017-11-13T16:57:58.206Z,4.71
2017-11-13T17:00:26.089Z,4.68
2017-11-13T17:02:53.680Z,4.64
2017-11-13T17:05:21.243Z,4.64
2017-11-13T17:07:48.835Z,4.65
2017-11-13T17:10:16.438Z,4.63
2017-11-13T17:12:44.025Z,4.63
2017-11-13T17:15:11.683Z,4.59
2017-11-13T17:17:39.532Z,4.55
2017-11-13T17:20:07.119Z,4.52
2017-11-13T17:22:34.682Z,4.52
2017-11-13T17:25:02.258Z,4.54
2017-11-13T17:27:29.842Z,4.52
2017-11-13T17:29:57.456Z,4.53
2017-11-13T17:32:25.041Z,4.50
2017-11-13T17:34:52.949Z,4.51
2017-11-13T17:37:20.659Z,4.51
2017-11-13T17:39:48.238Z,4.49
2017-11-13T17:42:15.862Z,4.47
2017-11-13T17:44:43.438Z,4.45
2017-11-13T17:47:11.051Z,4.43
2017-11-13T17:49:38.626Z,4.35
2017-11-13T17:52:06.224Z,4.29
2017-11-13T17:54:33.906Z,4.24
2017-11-13T17:57:01.533Z,4.22
2017-11-13T17:59:29.169Z,4.20
2017-11-13T18:01:56.746Z,4.22
2017-11-13T18:04:24.559Z,4.17
2017-11-13T18:06:52.105Z,4.17
2017-11-13T18:09:19.755Z,4.14
2017-11-13T18:11:47.317Z,4.13
2017-11-13T18:14:14.957Z,4.10
2017-11-13T18:16:42.578Z,4.05
2017-11-13T18:19:10.320Z,3.99
2017-11-13T18:21:37.927Z,4.03
2017-11-13T18:24:05.517Z,4.06
2017-11-13T18:26:33.155Z,4.07
2017-11-13T18:29:00.736Z,4.09
2017-11-13T18:31:28.325Z,4.10
2017-11-13T18:33:55.975Z,4.13
2017-11-13T18:36:23.585Z,4.15
2017-11-13T18:38:57.317Z,4.14
2017-11-13T18:41:26.586Z,4.13
2017-11-13T18:43:54.599Z,4.15
2017-11-13T18:46:22.336Z,4.17
2017-11-13T18:48:50.101Z,4.18
2017-11-13T18:51:17.762Z,4.16
2017-11-13T18:53:45.420Z,4.10
2017-11-13T18:56:13.210Z,4.13
2017-11-13T18:58:41.022Z,4.10
2017-11-13T19:01:08.752Z,4.10
2017-11-13T19:03:37.130Z,4.13
2017-11-13T19:06:11.289Z,4.08
2017-11-13T19:08:39.337Z,4.04
2017-11-13T19:11:07.205Z,4.06
2017-11-13T19:13:35.219Z,4.08
2017-11-13T19:16:02.983Z,4.05
2017-11-13T19:18:31.104Z,4.04
2017-11-13T19:20:58.838Z,4.01
2017-11-13T19:23:26.873Z,3.96
2017-11-13T19:25:54.755Z,3.95
2017-11-13T19:28:22.570Z,3.94
2017-11-13T19:30:50.497Z,3.95
2017-11-13T19:33:18.336Z,3.94
2017-11-13T19:35:46.433Z,3.95
2017-11-13T19:38:14.332Z,3.91
2017-11-13T19:40:42.240Z,3.84
2017-11-13T19:43:10.335Z,3.84
2017-11-13T19:45:38.410Z,3.84
2017-11-13T19:48:06.504Z,3.83
2017-11-13T19:50:34.605Z,3.82
2017-11-13T19:53:02.367Z,3.84
2017-11-13T19:55:30.129Z,3.86
2017-11-13T19:57:58.057Z,3.89
2017-11-13T20:00:25.889Z,3.90
2017-11-13T20:02:53.788Z,3.91
2017-11-13T20:05:22.607Z,3.90
2017-11-13T20:07:51.155Z,3.93
2017-11-13T20:10:19.129Z,3.90
2017-11-13T20:12:47.093Z,3.89
2017-11-13T20:15:15.400Z,3.88
2017-11-13T20:17:43.221Z,3.86
2017-11-13T20:20:11.109Z,3.81
2017-11-13T20:22:39.078Z,3.79
2017-11-13T20:25:06.926Z,3.80
2017-11-13T20:27:34.809Z,3.79
2017-11-13T20:30:02.625Z,3.74
2017-11-13T20:32:30.443Z,3.74
2017-11-13T20:34:58.223Z,3.76
2017-11-13T20:37:25.957Z,3.77
2017-11-13T20:39:54.759Z,3.75
2017-11-13T20:42:23.011Z,3.74
2017-11-13T20:44:50.777Z,3.73
2017-11-13T20:47:18.571Z,3.72
2017-11-13T20:49:46.427Z,3.71
2017-11-13T20:52:14.451Z,3.70
2017-11-13T20:54:42.263Z,3.70
2017-11-13T20:57:10.110Z,3.71
2017-11-13T20:59:39.841Z,3.72
2017-11-13T21:02:07.986Z,3.72
2017-11-13T21:04:35.756Z,3.72
2017-11-13T21:07:03.652Z,3.70
2017-11-13T21:09:31.466Z,3.69
2017-11-13T21:12:00.115Z,3.67
2017-11-13T21:14:28.083Z,3.70
2017-11-13T21:16:56.886Z,3.71
2017-11-13T21:19:24.700Z,3.72
2017-11-13T21:21:53.384Z,3.72
2017-11-13T21:24:21.975Z,3.70
2017-11-13T21:26:50.458Z,3.65
2017-11-13T21:29:18.317Z,3.63
2017-11-13T21:31:46.212Z,3.63
2017-11-13T21:34:13.879Z,3.65
2017-11-13T21:36:41.516Z,3.66
2017-11-13T21:39:10.143Z,3.65
2017-11-13T21:41:37.881Z,3.62
2017-11-13T21:44:05.517Z,3.58
2017-11-13T21:46:33.208Z,3.58
2017-11-13T21:49:00.915Z,3.61
2017-11-13T21:51:28.590Z,3.60
2017-11-13T21:53:56.167Z,3.58
2017-11-13T21:56:23.893Z,3.55
2017-11-13T21:58:51.441Z,3.50
2017-11-13T22:01:19.051Z,3.47
2017-11-13T22:03:46.599Z,3.47
2017-11-13T22:06:14.189Z,3.48
2017-11-13T22:08:41.732Z,3.47
2017-11-13T22:11:09.252Z,3.43
2017-11-13T22:13:36.805Z,3.37
2017-11-13T22:16:04.480Z,3.35
2017-11-13T22:18:32.077Z,3.32
2017-11-13T22:20:59.639Z,3.29
2017-11-13T22:23:27.791Z,3.26
2017-11-13T22:25:55.792Z,3.23
2017-11-13T22:28:23.423Z,3.22
2017-11-13T22:30:51.071Z,3.17
2017-11-13T22:33:18.672Z,3.15
2017-11-13T22:35:46.277Z,3.12
2017-11-13T22:38:13.899Z,3.09
2017-11-13T22:40:41.436Z,3.08
2017-11-13T22:43:09.076Z,3.04
2017-11-13T22:45:36.750Z,3.00
2017-11-13T22:48:04.320Z,2.97
2017-11-13T22:50:31.931Z,2.96
2017-11-13T22:52:59.757Z,2.98
2017-11-13T22:55:27.291Z,2.96
2017-11-13T22:57:54.853Z,2.94
2017-11-13T23:00:22.434Z,2.94
2017-11-13T23:02:49.978Z,2.92
2017-11-13T23:05:17.809Z,2.90
2017-11-13T23:07:45.377Z,2.89
2017-11-13T23:10:12.914Z,2.87
2017-11-13T23:12:40.467Z,2.87
2017-11-13T23:15:08.023Z,2.86
2017-11-13T23:17:35.631Z,2.83
2017-11-13T23:20:03.176Z,2.80
2017-11-13T23:22:31.080Z,2.78
2017-11-13T23:24:58.635Z,2.73
2017-11-13T23:27:26.185Z,2.70
2017-11-13T23:29:53.756Z,2.65
2017-11-13T23:32:21.497Z,2.61
2017-11-13T23:34:49.075Z,2.57
2017-11-13T23:37:16.745Z,2.53
2017-11-13T23:39:44.265Z,2.51
2017-11-13T23:42:12.268Z,2.48
2017-11-13T23:44:39.985Z,2.43
2017-11-13T23:47:07.603Z,2.39
2017-11-13T23:49:35.151Z,2.35
2017-11-13T23:52:02.728Z,2.33
2017-11-13T23:54:36.333Z,2.28
2017-11-13T23:57:03.869Z,2.24
2017-11-13T23:59:31.756Z,2.19
